sensor_id;sensor_type;location;lat;lon;timestamp;P1;durP1;ratioP1;P2;durP2;ratioP2
75700;SDS011;64321;48.796;44.740;2022-12-22T00:00:41;14.43;;;4.60;;
75700;SDS011;64321;48.796;44.740;2022-12-22T00:06:07;13.30;;;4.75;;
75700;SDS011;64321;48.796;44.740;2022-12-22T00:11:29;14.27;;;4.85;;
75700;SDS011;64321;48.796;44.740;2022-12-22T00:16:50;14.52;;;6.10;;
75700;SDS011;64321;48.796;44.740;2022-12-22T00:22:11;20.23;;;6.20;;
75700;SDS011;64321;48.796;44.740;2022-12-22T00:27:43;17.50;;;6.45;;
75700;SDS011;64321;48.796;44.740;2022-12-22T00:33:04;14.38;;;5.03;;
75700;SDS011;64321;48.796;44.740;2022-12-22T00:38:26;16.00;;;5.18;;
75700;SDS011;64321;48.796;44.740;2022-12-22T00:43:48;17.15;;;6.15;;
75700;SDS011;64321;48.796;44.740;2022-12-22T00:49:09;13.85;;;4.97;;
75700;SDS011;64321;48.796;44.740;2022-12-22T00:54:30;13.05;;;5.47;;
75700;SDS011;64321;48.796;44.740;2022-12-22T00:59:57;14.25;;;5.18;;
75700;SDS011;64321;48.796;44.740;2022-12-22T01:05:18;16.02;;;5.47;;
75700;SDS011;64321;48.796;44.740;2022-12-22T01:10:39;12.75;;;4.57;;
75700;SDS011;64321;48.796;44.740;2022-12-22T01:16:00;15.98;;;5.75;;
75700;SDS011;64321;48.796;44.740;2022-12-22T01:21:22;15.27;;;5.55;;
75700;SDS011;64321;48.796;44.740;2022-12-22T01:26:43;13.73;;;5.15;;
75700;SDS011;64321;48.796;44.740;2022-12-22T01:32:04;12.15;;;4.90;;
75700;SDS011;64321;48.796;44.740;2022-12-22T01:37:25;12.52;;;4.57;;
75700;SDS011;64321;48.796;44.740;2022-12-22T01:42:46;16.50;;;5.82;;
75700;SDS011;64321;48.796;44.740;2022-12-22T01:48:17;12.32;;;4.47;;
75700;SDS011;64321;48.796;44.740;2022-12-22T01:53:39;16.15;;;5.93;;
75700;SDS011;64321;48.796;44.740;2022-12-22T01:59:03;14.98;;;4.85;;
75700;SDS011;64321;48.796;44.740;2022-12-22T02:04:25;16.40;;;5.22;;
75700;SDS011;64321;48.796;44.740;2022-12-22T02:16:13;15.60;;;5.03;;
75700;SDS011;64321;48.796;44.740;2022-12-22T02:27:18;12.48;;;4.63;;
75700;SDS011;64321;48.796;44.740;2022-12-22T02:32:41;15.15;;;5.28;;
75700;SDS011;64321;48.796;44.740;2022-12-22T02:49:38;13.93;;;5.53;;
75700;SDS011;64321;48.796;44.740;2022-12-22T02:55:05;15.98;;;5.72;;
75700;SDS011;64321;48.796;44.740;2022-12-22T03:00:27;15.25;;;4.57;;
75700;SDS011;64321;48.796;44.740;2022-12-22T03:05:49;15.60;;;5.60;;
75700;SDS011;64321;48.796;44.740;2022-12-22T03:11:10;12.40;;;4.78;;
75700;SDS011;64321;48.796;44.740;2022-12-22T03:16:31;18.83;;;5.07;;
75700;SDS011;64321;48.796;44.740;2022-12-22T03:21:52;15.25;;;5.22;;
75700;SDS011;64321;48.796;44.740;2022-12-22T03:27:13;17.20;;;6.43;;
75700;SDS011;64321;48.796;44.740;2022-12-22T03:32:16;17.83;;;5.43;;
75700;SDS011;64321;48.796;44.740;2022-12-22T03:37:18;17.23;;;5.65;;
75700;SDS011;64321;48.796;44.740;2022-12-22T03:42:21;15.65;;;6.20;;
75700;SDS011;64321;48.796;44.740;2022-12-22T03:47:42;16.65;;;6.30;;
75700;SDS011;64321;48.796;44.740;2022-12-22T03:52:44;15.32;;;6.20;;
75700;SDS011;64321;48.796;44.740;2022-12-22T03:57:47;19.85;;;6.68;;
75700;SDS011;64321;48.796;44.740;2022-12-22T04:02:49;23.45;;;6.70;;
75700;SDS011;64321;48.796;44.740;2022-12-22T04:07:52;16.27;;;6.72;;
75700;SDS011;64321;48.796;44.740;2022-12-22T04:12:54;16.48;;;6.30;;
75700;SDS011;64321;48.796;44.740;2022-12-22T04:17:57;17.92;;;6.57;;
75700;SDS011;64321;48.796;44.740;2022-12-22T04:23:00;15.90;;;6.57;;
75700;SDS011;64321;48.796;44.740;2022-12-22T04:28:03;21.42;;;7.47;;
75700;SDS011;64321;48.796;44.740;2022-12-22T04:33:05;18.48;;;7.38;;
75700;SDS011;64321;48.796;44.740;2022-12-22T04:38:08;19.25;;;7.40;;
75700;SDS011;64321;48.796;44.740;2022-12-22T04:43:10;20.15;;;8.13;;
75700;SDS011;64321;48.796;44.740;2022-12-22T04:48:13;19.65;;;6.80;;
75700;SDS011;64321;48.796;44.740;2022-12-22T04:53:15;20.20;;;7.47;;
75700;SDS011;64321;48.796;44.740;2022-12-22T04:58:18;19.48;;;7.15;;
75700;SDS011;64321;48.796;44.740;2022-12-22T05:03:20;22.73;;;7.90;;
75700;SDS011;64321;48.796;44.740;2022-12-22T05:08:23;21.30;;;8.23;;
75700;SDS011;64321;48.796;44.740;2022-12-22T05:13:26;24.30;;;8.52;;
75700;SDS011;64321;48.796;44.740;2022-12-22T05:18:28;21.40;;;7.80;;
75700;SDS011;64321;48.796;44.740;2022-12-22T05:23:31;24.70;;;8.00;;
75700;SDS011;64321;48.796;44.740;2022-12-22T05:28:34;22.27;;;7.53;;
75700;SDS011;64321;48.796;44.740;2022-12-22T05:33:36;24.17;;;8.25;;
75700;SDS011;64321;48.796;44.740;2022-12-22T05:38:38;22.85;;;7.70;;
75700;SDS011;64321;48.796;44.740;2022-12-22T05:43:41;20.95;;;8.50;;
75700;SDS011;64321;48.796;44.740;2022-12-22T05:48:44;23.73;;;8.68;;
75700;SDS011;64321;48.796;44.740;2022-12-22T05:53:46;26.20;;;9.68;;
75700;SDS011;64321;48.796;44.740;2022-12-22T05:58:49;21.25;;;7.93;;
75700;SDS011;64321;48.796;44.740;2022-12-22T06:03:51;24.55;;;8.20;;
75700;SDS011;64321;48.796;44.740;2022-12-22T06:09:00;20.40;;;8.15;;
75700;SDS011;64321;48.796;44.740;2022-12-22T06:14:03;23.65;;;8.43;;
75700;SDS011;64321;48.796;44.740;2022-12-22T06:19:05;21.67;;;7.72;;
75700;SDS011;64321;48.796;44.740;2022-12-22T06:24:08;21.58;;;8.45;;
75700;SDS011;64321;48.796;44.740;2022-12-22T06:29:10;21.00;;;7.43;;
75700;SDS011;64321;48.796;44.740;2022-12-22T06:34:13;21.52;;;7.53;;
75700;SDS011;64321;48.796;44.740;2022-12-22T06:39:19;23.35;;;7.68;;
75700;SDS011;64321;48.796;44.740;2022-12-22T06:44:21;21.92;;;7.68;;
75700;SDS011;64321;48.796;44.740;2022-12-22T06:49:24;25.90;;;7.90;;
75700;SDS011;64321;48.796;44.740;2022-12-22T06:54:26;21.92;;;8.10;;
75700;SDS011;64321;48.796;44.740;2022-12-22T06:59:29;20.38;;;7.47;;
75700;SDS011;64321;48.796;44.740;2022-12-22T07:04:31;23.80;;;8.50;;
75700;SDS011;64321;48.796;44.740;2022-12-22T07:09:34;21.35;;;7.57;;
75700;SDS011;64321;48.796;44.740;2022-12-22T07:14:36;19.90;;;7.68;;
75700;SDS011;64321;48.796;44.740;2022-12-22T07:19:39;20.83;;;8.02;;
75700;SDS011;64321;48.796;44.740;2022-12-22T07:24:41;20.30;;;7.82;;
75700;SDS011;64321;48.796;44.740;2022-12-22T07:29:44;22.65;;;8.10;;
75700;SDS011;64321;48.796;44.740;2022-12-22T07:34:46;23.83;;;8.70;;
75700;SDS011;64321;48.796;44.740;2022-12-22T07:39:48;22.52;;;8.30;;
75700;SDS011;64321;48.796;44.740;2022-12-22T07:44:51;19.33;;;7.32;;
75700;SDS011;64321;48.796;44.740;2022-12-22T07:49:53;23.15;;;8.88;;
75700;SDS011;64321;48.796;44.740;2022-12-22T07:55:14;21.52;;;8.23;;
75700;SDS011;64321;48.796;44.740;2022-12-22T08:00:17;21.63;;;7.88;;
75700;SDS011;64321;48.796;44.740;2022-12-22T08:05:21;17.33;;;6.28;;
75700;SDS011;64321;48.796;44.740;2022-12-22T08:10:25;22.33;;;8.20;;
75700;SDS011;64321;48.796;44.740;2022-12-22T08:15:28;21.15;;;7.35;;
75700;SDS011;64321;48.796;44.740;2022-12-22T08:20:30;17.98;;;6.30;;
75700;SDS011;64321;48.796;44.740;2022-12-22T08:25:33;18.58;;;6.97;;
75700;SDS011;64321;48.796;44.740;2022-12-22T08:30:36;17.25;;;7.45;;
75700;SDS011;64321;48.796;44.740;2022-12-22T08:35:39;22.23;;;7.15;;
75700;SDS011;64321;48.796;44.740;2022-12-22T08:40:42;23.63;;;7.95;;
75700;SDS011;64321;48.796;44.740;2022-12-22T08:45:46;17.48;;;7.32;;
75700;SDS011;64321;48.796;44.740;2022-12-22T08:50:48;23.40;;;7.68;;
75700;SDS011;64321;48.796;44.740;2022-12-22T08:55:54;20.33;;;7.70;;
75700;SDS011;64321;48.796;44.740;2022-12-22T09:00:57;20.75;;;7.97;;
75700;SDS011;64321;48.796;44.740;2022-12-22T09:06:00;23.67;;;7.88;;
75700;SDS011;64321;48.796;44.740;2022-12-22T09:11:03;19.60;;;7.63;;
75700;SDS011;64321;48.796;44.740;2022-12-22T09:16:06;20.20;;;7.38;;
75700;SDS011;64321;48.796;44.740;2022-12-22T09:21:10;25.88;;;8.35;;
75700;SDS011;64321;48.796;44.740;2022-12-22T09:26:14;19.55;;;7.07;;
75700;SDS011;64321;48.796;44.740;2022-12-22T09:31:19;20.52;;;7.97;;
75700;SDS011;64321;48.796;44.740;2022-12-22T09:36:24;19.15;;;7.07;;
75700;SDS011;64321;48.796;44.740;2022-12-22T09:41:29;18.75;;;8.05;;
75700;SDS011;64321;48.796;44.740;2022-12-22T09:46:49;20.25;;;6.85;;
75700;SDS011;64321;48.796;44.740;2022-12-22T09:51:59;22.05;;;7.03;;
75700;SDS011;64321;48.796;44.740;2022-12-22T09:57:05;18.90;;;6.07;;
75700;SDS011;64321;48.796;44.740;2022-12-22T10:02:30;17.02;;;6.32;;
75700;SDS011;64321;48.796;44.740;2022-12-22T10:07:44;21.00;;;7.15;;
75700;SDS011;64321;48.796;44.740;2022-12-22T10:12:48;20.30;;;7.53;;
75700;SDS011;64321;48.796;44.740;2022-12-22T10:17:51;26.20;;;6.22;;
75700;SDS011;64321;48.796;44.740;2022-12-22T10:23:03;18.90;;;6.43;;
75700;SDS011;64321;48.796;44.740;2022-12-22T10:28:27;19.75;;;6.05;;
75700;SDS011;64321;48.796;44.740;2022-12-22T10:33:34;17.80;;;6.15;;
75700;SDS011;64321;48.796;44.740;2022-12-22T10:39:04;20.67;;;6.35;;
75700;SDS011;64321;48.796;44.740;2022-12-22T10:44:18;16.35;;;6.60;;
75700;SDS011;64321;48.796;44.740;2022-12-22T10:49:33;18.58;;;6.57;;
75700;SDS011;64321;48.796;44.740;2022-12-22T10:54:37;18.33;;;6.55;;
75700;SDS011;64321;48.796;44.740;2022-12-22T10:59:51;17.10;;;6.32;;
75700;SDS011;64321;48.796;44.740;2022-12-22T11:05:16;14.20;;;5.03;;
75700;SDS011;64321;48.796;44.740;2022-12-22T11:20:54;16.08;;;5.68;;
75700;SDS011;64321;48.796;44.740;2022-12-22T11:31:52;15.93;;;4.88;;
75700;SDS011;64321;48.796;44.740;2022-12-22T11:53:56;13.98;;;5.40;;
75700;SDS011;64321;48.796;44.740;2022-12-22T12:10:47;15.38;;;5.82;;
75700;SDS011;64321;48.796;44.740;2022-12-22T12:21:47;13.88;;;5.10;;
75700;SDS011;64321;48.796;44.740;2022-12-22T12:32:20;14.13;;;5.40;;
75700;SDS011;64321;48.796;44.740;2022-12-22T12:37:39;14.25;;;4.55;;
75700;SDS011;64321;48.796;44.740;2022-12-22T12:42:45;15.43;;;5.05;;
75700;SDS011;64321;48.796;44.740;2022-12-22T12:47:48;16.90;;;5.40;;
75700;SDS011;64321;48.796;44.740;2022-12-22T12:57:54;13.63;;;5.03;;
75700;SDS011;64321;48.796;44.740;2022-12-22T13:03:40;15.43;;;5.65;;
75700;SDS011;64321;48.796;44.740;2022-12-22T13:19:58;18.90;;;6.15;;
75700;SDS011;64321;48.796;44.740;2022-12-22T13:25:01;14.55;;;5.30;;
75700;SDS011;64321;48.796;44.740;2022-12-22T13:30:05;16.38;;;6.15;;
75700;SDS011;64321;48.796;44.740;2022-12-22T13:35:24;16.42;;;5.90;;
75700;SDS011;64321;48.796;44.740;2022-12-22T13:40:41;16.25;;;5.95;;
75700;SDS011;64321;48.796;44.740;2022-12-22T13:50:48;17.23;;;6.70;;
75700;SDS011;64321;48.796;44.740;2022-12-22T13:55:53;18.52;;;6.20;;
75700;SDS011;64321;48.796;44.740;2022-12-22T14:01:11;18.02;;;7.13;;
75700;SDS011;64321;48.796;44.740;2022-12-22T14:06:39;19.00;;;6.75;;
75700;SDS011;64321;48.796;44.740;2022-12-22T14:11:42;18.73;;;6.35;;
75700;SDS011;64321;48.796;44.740;2022-12-22T14:16:53;17.50;;;6.78;;
75700;SDS011;64321;48.796;44.740;2022-12-22T14:27:03;19.42;;;6.97;;
75700;SDS011;64321;48.796;44.740;2022-12-22T14:32:07;20.77;;;8.20;;
75700;SDS011;64321;48.796;44.740;2022-12-22T14:37:10;18.60;;;6.65;;
75700;SDS011;64321;48.796;44.740;2022-12-22T14:42:13;17.95;;;7.22;;
75700;SDS011;64321;48.796;44.740;2022-12-22T14:47:16;17.33;;;6.03;;
75700;SDS011;64321;48.796;44.740;2022-12-22T14:52:25;19.52;;;7.63;;
75700;SDS011;64321;48.796;44.740;2022-12-22T14:58:10;18.98;;;6.75;;
75700;SDS011;64321;48.796;44.740;2022-12-22T15:08:41;19.02;;;7.30;;
75700;SDS011;64321;48.796;44.740;2022-12-22T15:13:44;19.88;;;7.20;;
75700;SDS011;64321;48.796;44.740;2022-12-22T15:18:49;17.80;;;6.70;;
75700;SDS011;64321;48.796;44.740;2022-12-22T15:23:52;19.52;;;7.22;;
75700;SDS011;64321;48.796;44.740;2022-12-22T15:28:55;19.63;;;7.57;;
75700;SDS011;64321;48.796;44.740;2022-12-22T15:34:02;19.13;;;7.15;;
75700;SDS011;64321;48.796;44.740;2022-12-22T15:39:12;23.08;;;8.50;;
75700;SDS011;64321;48.796;44.740;2022-12-22T15:44:16;22.92;;;7.70;;
75700;SDS011;64321;48.796;44.740;2022-12-22T15:49:20;19.25;;;6.38;;
75700;SDS011;64321;48.796;44.740;2022-12-22T15:54:25;22.13;;;8.35;;
75700;SDS011;64321;48.796;44.740;2022-12-22T15:59:29;19.45;;;7.80;;
75700;SDS011;64321;48.796;44.740;2022-12-22T16:04:32;20.30;;;7.78;;
75700;SDS011;64321;48.796;44.740;2022-12-22T16:09:39;18.88;;;7.30;;
75700;SDS011;64321;48.796;44.740;2022-12-22T16:14:45;21.85;;;7.32;;
75700;SDS011;64321;48.796;44.740;2022-12-22T16:19:51;21.10;;;8.07;;
75700;SDS011;64321;48.796;44.740;2022-12-22T16:24:54;21.73;;;7.65;;
75700;SDS011;64321;48.796;44.740;2022-12-22T16:29:57;22.67;;;8.48;;
75700;SDS011;64321;48.796;44.740;2022-12-22T16:35:13;18.60;;;7.00;;
75700;SDS011;64321;48.796;44.740;2022-12-22T16:40:17;21.20;;;7.68;;
75700;SDS011;64321;48.796;44.740;2022-12-22T16:45:21;17.05;;;6.90;;
75700;SDS011;64321;48.796;44.740;2022-12-22T16:50:26;22.77;;;8.18;;
75700;SDS011;64321;48.796;44.740;2022-12-22T16:55:33;24.25;;;8.43;;
75700;SDS011;64321;48.796;44.740;2022-12-22T17:00:37;24.20;;;8.35;;
75700;SDS011;64321;48.796;44.740;2022-12-22T17:05:43;22.60;;;8.98;;
75700;SDS011;64321;48.796;44.740;2022-12-22T17:10:49;21.38;;;8.30;;
75700;SDS011;64321;48.796;44.740;2022-12-22T17:15:52;21.40;;;8.23;;
75700;SDS011;64321;48.796;44.740;2022-12-22T17:20:56;24.55;;;9.18;;
75700;SDS011;64321;48.796;44.740;2022-12-22T17:26:01;25.98;;;9.35;;
75700;SDS011;64321;48.796;44.740;2022-12-22T17:31:11;22.02;;;8.48;;
75700;SDS011;64321;48.796;44.740;2022-12-22T17:36:37;23.30;;;8.93;;
75700;SDS011;64321;48.796;44.740;2022-12-22T17:41:41;22.95;;;7.60;;
75700;SDS011;64321;48.796;44.740;2022-12-22T17:46:44;20.98;;;7.28;;
75700;SDS011;64321;48.796;44.740;2022-12-22T17:51:46;20.40;;;7.75;;
75700;SDS011;64321;48.796;44.740;2022-12-22T17:56:50;21.85;;;7.78;;
75700;SDS011;64321;48.796;44.740;2022-12-22T18:01:55;27.00;;;8.65;;
75700;SDS011;64321;48.796;44.740;2022-12-22T18:06:58;23.48;;;8.55;;
75700;SDS011;64321;48.796;44.740;2022-12-22T18:12:02;22.02;;;8.35;;
75700;SDS011;64321;48.796;44.740;2022-12-22T18:17:05;21.88;;;7.57;;
75700;SDS011;64321;48.796;44.740;2022-12-22T18:22:14;20.58;;;7.50;;
75700;SDS011;64321;48.796;44.740;2022-12-22T18:27:21;19.75;;;7.53;;
75700;SDS011;64321;48.796;44.740;2022-12-22T18:32:24;24.67;;;8.65;;
75700;SDS011;64321;48.796;44.740;2022-12-22T18:37:28;21.42;;;8.23;;
75700;SDS011;64321;48.796;44.740;2022-12-22T18:42:31;23.10;;;8.25;;
75700;SDS011;64321;48.796;44.740;2022-12-22T18:47:35;21.92;;;8.15;;
75700;SDS011;64321;48.796;44.740;2022-12-22T18:52:37;19.13;;;7.10;;
75700;SDS011;64321;48.796;44.740;2022-12-22T18:57:40;24.20;;;7.43;;
75700;SDS011;64321;48.796;44.740;2022-12-22T19:02:46;23.48;;;7.30;;
75700;SDS011;64321;48.796;44.740;2022-12-22T19:07:51;21.20;;;7.15;;
75700;SDS011;64321;48.796;44.740;2022-12-22T19:12:55;18.60;;;6.07;;
75700;SDS011;64321;48.796;44.740;2022-12-22T19:17:58;20.77;;;6.35;;
75700;SDS011;64321;48.796;44.740;2022-12-22T19:23:01;21.55;;;6.30;;
75700;SDS011;64321;48.796;44.740;2022-12-22T19:28:11;20.00;;;7.38;;
75700;SDS011;64321;48.796;44.740;2022-12-22T19:33:26;20.08;;;6.82;;
75700;SDS011;64321;48.796;44.740;2022-12-22T19:38:32;21.65;;;7.28;;
75700;SDS011;64321;48.796;44.740;2022-12-22T19:43:36;23.98;;;8.63;;
75700;SDS011;64321;48.796;44.740;2022-12-22T19:48:38;25.17;;;9.15;;
75700;SDS011;64321;48.796;44.740;2022-12-22T19:53:41;22.52;;;7.85;;
75700;SDS011;64321;48.796;44.740;2022-12-22T19:58:43;28.08;;;8.73;;
75700;SDS011;64321;48.796;44.740;2022-12-22T20:03:46;25.10;;;8.63;;
75700;SDS011;64321;48.796;44.740;2022-12-22T20:08:49;26.95;;;8.25;;
75700;SDS011;64321;48.796;44.740;2022-12-22T20:13:52;26.00;;;8.88;;
75700;SDS011;64321;48.796;44.740;2022-12-22T20:18:54;24.55;;;8.13;;
75700;SDS011;64321;48.796;44.740;2022-12-22T20:23:57;26.33;;;9.57;;
75700;SDS011;64321;48.796;44.740;2022-12-22T20:29:01;22.00;;;7.72;;
75700;SDS011;64321;48.796;44.740;2022-12-22T20:34:04;22.38;;;7.88;;
75700;SDS011;64321;48.796;44.740;2022-12-22T20:39:11;22.75;;;7.18;;
75700;SDS011;64321;48.796;44.740;2022-12-22T20:44:15;19.10;;;6.75;;
75700;SDS011;64321;48.796;44.740;2022-12-22T20:49:17;21.83;;;7.13;;
75700;SDS011;64321;48.796;44.740;2022-12-22T20:54:20;22.05;;;7.80;;
75700;SDS011;64321;48.796;44.740;2022-12-22T20:59:23;24.85;;;8.07;;
75700;SDS011;64321;48.796;44.740;2022-12-22T21:04:25;21.95;;;7.28;;
75700;SDS011;64321;48.796;44.740;2022-12-22T21:09:28;22.67;;;7.80;;
75700;SDS011;64321;48.796;44.740;2022-12-22T21:14:30;27.83;;;9.27;;
75700;SDS011;64321;48.796;44.740;2022-12-22T21:19:33;21.23;;;7.80;;
75700;SDS011;64321;48.796;44.740;2022-12-22T21:24:36;23.00;;;7.55;;
75700;SDS011;64321;48.796;44.740;2022-12-22T21:29:39;24.70;;;8.18;;
75700;SDS011;64321;48.796;44.740;2022-12-22T21:34:41;24.08;;;7.85;;
75700;SDS011;64321;48.796;44.740;2022-12-22T21:39:44;21.35;;;7.00;;
75700;SDS011;64321;48.796;44.740;2022-12-22T21:44:46;26.63;;;9.07;;
75700;SDS011;64321;48.796;44.740;2022-12-22T21:49:49;23.08;;;7.45;;
75700;SDS011;64321;48.796;44.740;2022-12-22T21:54:51;24.40;;;7.82;;
75700;SDS011;64321;48.796;44.740;2022-12-22T21:59:54;30.65;;;8.18;;
75700;SDS011;64321;48.796;44.740;2022-12-22T22:04:56;31.50;;;6.95;;
75700;SDS011;64321;48.796;44.740;2022-12-22T22:09:59;25.45;;;7.28;;
75700;SDS011;64321;48.796;44.740;2022-12-22T22:15:05;47.20;;;7.75;;
75700;SDS011;64321;48.796;44.740;2022-12-22T22:20:11;26.10;;;6.97;;
75700;SDS011;64321;48.796;44.740;2022-12-22T22:25:16;52.03;;;7.50;;
75700;SDS011;64321;48.796;44.740;2022-12-22T22:30:21;37.00;;;7.20;;
75700;SDS011;64321;48.796;44.740;2022-12-22T22:35:28;53.15;;;7.70;;
75700;SDS011;64321;48.796;44.740;2022-12-22T22:40:30;26.15;;;6.93;;
75700;SDS011;64321;48.796;44.740;2022-12-22T22:45:35;46.08;;;7.93;;
75700;SDS011;64321;48.796;44.740;2022-12-22T22:50:39;31.00;;;6.30;;
75700;SDS011;64321;48.796;44.740;2022-12-22T22:55:42;50.78;;;7.40;;
75700;SDS011;64321;48.796;44.740;2022-12-22T23:00:44;57.30;;;7.45;;
75700;SDS011;64321;48.796;44.740;2022-12-22T23:05:47;43.10;;;7.22;;
75700;SDS011;64321;48.796;44.740;2022-12-22T23:10:49;42.03;;;7.43;;
75700;SDS011;64321;48.796;44.740;2022-12-22T23:15:55;51.22;;;8.55;;
75700;SDS011;64321;48.796;44.740;2022-12-22T23:21:00;37.83;;;8.48;;
75700;SDS011;64321;48.796;44.740;2022-12-22T23:26:04;73.32;;;7.32;;
75700;SDS011;64321;48.796;44.740;2022-12-22T23:31:08;58.67;;;10.15;;
75700;SDS011;64321;48.796;44.740;2022-12-22T23:36:12;61.78;;;8.13;;
75700;SDS011;64321;48.796;44.740;2022-12-22T23:41:14;62.95;;;8.85;;
75700;SDS011;64321;48.796;44.740;2022-12-22T23:46:17;77.32;;;9.70;;
75700;SDS011;64321;48.796;44.740;2022-12-22T23:51:20;76.00;;;8.80;;
75700;SDS011;64321;48.796;44.740;2022-12-22T23:56:23;61.40;;;7.82;;
